createdAt,value
2023-05-19T00:00:17.996Z,2.67
2023-05-19T00:02:51.039Z,2.55
2023-05-19T00:05:25.203Z,3.15
2023-05-19T00:08:01.002Z,3.25
2023-05-19T00:10:34.696Z,2.72
2023-05-19T00:13:09.509Z,3.42
2023-05-19T00:15:45.008Z,2.70
2023-05-19T00:18:18.031Z,3.47
2023-05-19T00:20:49.773Z,3.20
2023-05-19T00:23:23.879Z,3.45
2023-05-19T00:25:55.740Z,3.45
2023-05-19T00:28:29.743Z,3.10
2023-05-19T00:31:02.231Z,3.27
2023-05-19T00:33:35.321Z,3.42
2023-05-19T00:36:08.406Z,3.20
2023-05-19T00:38:43.601Z,2.87
2023-05-19T00:41:15.430Z,2.87
2023-05-19T00:43:47.122Z,2.83
2023-05-19T00:46:19.329Z,3.52
2023-05-19T00:48:53.187Z,3.85
2023-05-19T00:51:27.276Z,3.52
2023-05-19T00:53:59.069Z,3.33
2023-05-19T00:56:31.169Z,2.67
2023-05-19T00:59:03.593Z,3.65
2023-05-19T01:01:36.750Z,2.72
2023-05-19T01:04:10.122Z,3.25
2023-05-19T01:06:45.811Z,2.77
2023-05-19T01:09:17.634Z,3.27
2023-05-19T01:11:49.213Z,2.92
2023-05-19T01:14:23.677Z,3.58
2023-05-19T01:16:59.484Z,3.15
2023-05-19T01:19:51.551Z,3.67
2023-05-19T01:22:46.335Z,3.20
2023-05-19T01:25:43.649Z,2.72
2023-05-19T01:28:34.867Z,3.90
2023-05-19T01:31:09.849Z,3.30
2023-05-19T01:33:42.894Z,2.70
2023-05-19T01:36:16.701Z,3.40
2023-05-19T01:38:49.106Z,2.80
2023-05-19T01:41:24.419Z,3.25
2023-05-19T01:43:57.156Z,3.15
2023-05-19T01:46:29.633Z,4.83
2023-05-19T01:49:02.515Z,2.65
2023-05-19T01:51:34.898Z,3.50
2023-05-19T01:54:07.918Z,3.37
2023-05-19T01:56:44.805Z,3.25
2023-05-19T01:59:28.791Z,3.45
2023-05-19T02:02:04.385Z,3.50
2023-05-19T02:04:40.013Z,3.35
2023-05-19T02:07:33.954Z,4.08
2023-05-19T02:10:12.367Z,3.35
2023-05-19T02:12:44.723Z,3.75
2023-05-19T02:15:19.194Z,3.95
2023-05-19T02:17:54.242Z,3.30
2023-05-19T02:20:28.606Z,3.15
2023-05-19T02:23:03.178Z,4.50
2023-05-19T02:25:35.660Z,4.58
2023-05-19T02:28:07.984Z,3.75
2023-05-19T02:30:40.141Z,3.52
2023-05-19T02:33:12.496Z,4.00
2023-05-19T02:35:47.428Z,4.37
2023-05-19T02:38:19.305Z,3.70
2023-05-19T02:40:52.933Z,3.85
2023-05-19T02:43:27.602Z,5.15
2023-05-19T02:45:59.554Z,4.17
2023-05-19T02:48:32.434Z,3.77
2023-05-19T02:51:04.586Z,4.55
2023-05-19T02:53:37.797Z,4.45
2023-05-19T02:56:16.035Z,3.47
2023-05-19T02:58:48.240Z,4.03
2023-05-19T03:01:21.406Z,3.62
2023-05-19T03:03:53.346Z,3.87
2023-05-19T03:06:25.448Z,4.55
2023-05-19T03:08:57.575Z,3.22
2023-05-19T03:11:32.355Z,4.15
2023-05-19T03:14:04.349Z,3.50
2023-05-19T03:16:37.654Z,3.95
2023-05-19T03:19:10.124Z,3.35
2023-05-19T03:21:43.532Z,4.53
2023-05-19T03:24:17.748Z,4.20
2023-05-19T03:26:49.853Z,4.28
2023-05-19T03:32:19.605Z,4.42
2023-05-19T03:34:51.586Z,4.28
2023-05-19T03:37:23.483Z,4.33
2023-05-19T03:39:55.413Z,4.20
2023-05-19T03:42:28.418Z,3.87
2023-05-19T03:45:01.168Z,3.65
2023-05-19T03:47:32.979Z,3.70
2023-05-19T03:50:10.114Z,3.55
2023-05-19T03:59:53.693Z,3.52
2023-05-19T04:02:25.868Z,3.92
2023-05-19T04:04:58.175Z,4.17
2023-05-19T04:07:30.518Z,6.47
2023-05-19T04:10:13.506Z,4.17
2023-05-19T04:12:45.246Z,4.50
2023-05-19T04:15:17.211Z,3.70
2023-05-19T04:17:49.927Z,3.20
2023-05-19T04:20:22.143Z,4.20
2023-05-19T04:22:54.412Z,4.05
2023-05-19T04:25:28.285Z,4.60
2023-05-19T04:28:03.678Z,3.98
2023-05-19T04:30:36.927Z,4.15
2023-05-19T04:33:10.115Z,3.83
2023-05-19T04:35:42.846Z,3.87
2023-05-19T04:38:17.716Z,4.87
2023-05-19T04:40:50.354Z,4.53
2023-05-19T04:43:22.419Z,5.15
2023-05-19T04:45:54.970Z,3.85
2023-05-19T04:48:27.610Z,4.08
2023-05-19T04:51:01.783Z,5.58
2023-05-19T04:53:33.516Z,5.65
2023-05-19T04:56:08.449Z,5.45
2023-05-19T04:58:42.041Z,4.45
2023-05-19T05:01:17.038Z,5.17
2023-05-19T05:03:51.086Z,4.58
2023-05-19T05:06:23.135Z,4.37
2023-05-19T05:08:58.155Z,4.12
2023-05-19T05:11:31.460Z,5.85
2023-05-19T05:14:08.144Z,4.22
2023-05-19T05:16:42.148Z,3.80
2023-05-19T05:19:14.770Z,4.35
2023-05-19T05:21:47.252Z,4.78
2023-05-19T05:24:19.892Z,4.70
2023-05-19T05:26:52.449Z,4.92
2023-05-19T05:29:23.954Z,3.98
2023-05-19T05:31:55.665Z,4.80
2023-05-19T05:34:27.697Z,4.03
2023-05-19T05:37:00.720Z,4.58
2023-05-19T05:39:32.476Z,7.22
2023-05-19T05:42:04.244Z,4.20
2023-05-19T05:44:35.929Z,4.53
2023-05-19T05:47:09.649Z,5.78
2023-05-19T05:49:44.177Z,5.97
2023-05-19T05:52:17.550Z,5.95
2023-05-19T05:54:50.300Z,6.08
2023-05-19T05:57:24.430Z,5.00
2023-05-19T05:59:56.700Z,4.10
2023-05-19T06:02:32.468Z,3.72
2023-05-19T06:05:05.961Z,3.65
2023-05-19T06:07:37.698Z,3.95
2023-05-19T06:10:11.433Z,4.10
2023-05-19T06:12:43.246Z,3.77
2023-05-19T06:15:15.022Z,3.72
2023-05-19T06:18:00.773Z,3.75
2023-05-19T06:20:33.629Z,3.65
2023-05-19T06:23:05.499Z,3.10
2023-05-19T06:25:37.610Z,3.42
2023-05-19T06:28:10.246Z,3.02
2023-05-19T06:30:41.973Z,3.72
2023-05-19T06:33:13.562Z,3.05
2023-05-19T06:35:45.160Z,3.95
2023-05-19T06:38:16.797Z,3.25
2023-05-19T06:40:49.080Z,3.27
2023-05-19T06:43:20.614Z,4.67
2023-05-19T06:45:52.690Z,3.40
2023-05-19T06:48:24.289Z,3.10
2023-05-19T06:50:56.022Z,3.75
2023-05-19T06:53:27.501Z,2.95
2023-05-19T06:56:00.213Z,3.52
2023-05-19T06:58:32.259Z,3.98
2023-05-19T07:01:04.930Z,2.80
2023-05-19T07:03:36.668Z,3.05
2023-05-19T07:06:08.674Z,3.35
2023-05-19T07:08:41.635Z,3.47
2023-05-19T07:11:14.204Z,3.25
2023-05-19T07:13:45.668Z,3.60
2023-05-19T07:16:17.271Z,4.03
2023-05-19T07:18:48.964Z,3.25
2023-05-19T07:21:20.709Z,3.10
2023-05-19T07:23:52.376Z,3.25
2023-05-19T07:26:23.905Z,2.62
2023-05-19T07:28:55.795Z,3.58
2023-05-19T07:31:27.513Z,3.33
2023-05-19T07:33:59.329Z,3.52
2023-05-19T07:36:31.318Z,3.52
2023-05-19T07:39:03.220Z,3.77
2023-05-19T07:41:36.376Z,3.25
2023-05-19T07:44:10.374Z,3.40
2023-05-19T07:46:41.897Z,3.90
2023-05-19T07:49:13.329Z,3.42
2023-05-19T07:51:45.028Z,3.33
2023-05-19T07:54:16.517Z,3.08
2023-05-19T07:56:48.160Z,3.58
2023-05-19T07:59:19.658Z,3.55
2023-05-19T08:01:51.219Z,3.47
2023-05-19T08:04:22.943Z,3.62
2023-05-19T08:06:55.561Z,2.80
2023-05-19T08:09:27.170Z,3.15
2023-05-19T08:11:58.933Z,3.45
2023-05-19T08:14:31.255Z,3.37
2023-05-19T08:17:04.848Z,3.65
2023-05-19T08:19:36.330Z,5.20
2023-05-19T08:22:07.878Z,3.60
2023-05-19T08:24:40.375Z,3.65
2023-05-19T08:27:11.852Z,3.10
2023-05-19T08:29:43.839Z,3.55
2023-05-19T08:32:15.458Z,6.05
2023-05-19T08:34:47.577Z,3.80
2023-05-19T08:37:19.777Z,3.55
2023-05-19T08:39:51.783Z,3.42
2023-05-19T08:42:23.310Z,3.45
2023-05-19T08:44:54.852Z,3.77
2023-05-19T08:47:29.583Z,3.65
2023-05-19T08:50:04.993Z,3.45
2023-05-19T08:52:47.847Z,3.50
2023-05-19T08:55:23.995Z,3.12
2023-05-19T08:57:55.788Z,4.28
2023-05-19T09:00:29.485Z,3.20
2023-05-19T09:03:17.677Z,3.40
2023-05-19T09:05:41.154Z,3.33
2023-05-19T09:08:12.606Z,4.00
2023-05-19T09:10:44.213Z,3.47
2023-05-19T09:13:15.846Z,4.33
2023-05-19T09:15:47.971Z,3.75
2023-05-19T09:18:19.524Z,5.03
2023-05-19T09:20:51.157Z,4.10
2023-05-19T09:23:22.949Z,3.47
2023-05-19T09:25:57.249Z,3.72
2023-05-19T09:28:30.735Z,3.95
2023-05-19T09:31:03.482Z,4.55
2023-05-19T09:33:36.947Z,4.10
2023-05-19T09:36:10.869Z,3.92
2023-05-19T09:38:42.513Z,3.72
2023-05-19T09:41:16.074Z,3.80
2023-05-19T09:43:50.584Z,4.60
2023-05-19T09:46:28.616Z,3.72
2023-05-19T09:49:00.670Z,4.40
2023-05-19T09:51:32.579Z,6.70
2023-05-19T09:54:05.045Z,4.10
2023-05-19T09:56:37.305Z,4.37
2023-05-19T09:59:09.404Z,3.77
2023-05-19T10:01:43.188Z,4.05
2023-05-19T10:04:16.502Z,4.22
2023-05-19T10:06:49.236Z,4.62
2023-05-19T10:09:23.467Z,19.65
2023-05-19T10:11:55.475Z,5.12
2023-05-19T10:14:30.297Z,5.35
2023-05-19T10:17:02.009Z,3.90
2023-05-19T10:19:34.264Z,3.98
2023-05-19T10:22:06.023Z,4.00
2023-05-19T10:24:37.554Z,4.00
2023-05-19T10:27:12.443Z,4.33
2023-05-19T10:29:47.512Z,4.53
2023-05-19T10:32:22.668Z,3.45
2023-05-19T10:35:02.974Z,3.92
2023-05-19T10:37:37.873Z,4.03
2023-05-19T10:40:14.275Z,4.60
2023-05-19T10:42:50.225Z,4.20
2023-05-19T10:45:24.549Z,4.95
2023-05-19T10:47:56.770Z,4.40
2023-05-19T10:50:28.435Z,4.83
2023-05-19T10:53:00.827Z,4.62
2023-05-19T10:55:48.519Z,4.85
2023-05-19T10:58:39.094Z,4.25
2023-05-19T11:01:12.483Z,4.75
2023-05-19T11:03:52.148Z,4.40
2023-05-19T11:06:30.216Z,4.00
2023-05-19T11:09:04.626Z,3.92
2023-05-19T11:11:47.753Z,4.78
2023-05-19T11:14:23.221Z,4.33
2023-05-19T11:16:58.199Z,4.00
2023-05-19T11:19:32.217Z,4.30
2023-05-19T11:22:11.841Z,5.10
2023-05-19T11:24:46.441Z,4.53
2023-05-19T11:27:24.246Z,4.03
2023-05-19T11:29:56.998Z,4.95
2023-05-19T11:32:31.415Z,4.53
2023-05-19T11:35:03.790Z,4.90
2023-05-19T11:37:36.962Z,5.00
2023-05-19T11:40:10.908Z,4.92
2023-05-19T11:42:42.590Z,5.60
2023-05-19T11:45:15.554Z,4.80
2023-05-19T11:48:01.216Z,4.10
2023-05-19T11:50:21.980Z,4.78
2023-05-19T11:52:54.048Z,5.12
2023-05-19T11:55:25.522Z,4.50
2023-05-19T11:58:04.564Z,4.70
2023-05-19T12:00:37.857Z,4.12
2023-05-19T12:03:10.468Z,4.05
2023-05-19T12:05:47.145Z,4.92
2023-05-19T12:08:19.870Z,5.65
2023-05-19T12:10:51.740Z,5.40
2023-05-19T12:13:24.529Z,4.40
2023-05-19T12:15:57.521Z,4.75
2023-05-19T12:18:32.510Z,5.12
2023-05-19T12:21:04.299Z,4.33
2023-05-19T12:23:37.051Z,4.55
2023-05-19T12:26:08.835Z,5.67
2023-05-19T12:28:41.555Z,5.22
2023-05-19T12:31:13.116Z,5.12
2023-05-19T12:33:44.801Z,4.65
2023-05-19T12:36:17.171Z,4.83
2023-05-19T12:38:51.070Z,5.40
2023-05-19T12:41:23.007Z,4.40
2023-05-19T12:43:55.221Z,5.10
2023-05-19T12:46:26.958Z,4.70
2023-05-19T12:49:01.468Z,5.35
2023-05-19T12:51:33.230Z,5.80
2023-05-19T12:54:05.382Z,5.37
2023-05-19T12:56:37.177Z,5.58
2023-05-19T12:59:08.811Z,6.20
2023-05-19T13:01:40.376Z,5.78
2023-05-19T13:04:12.071Z,4.45
2023-05-19T13:06:44.111Z,5.67
2023-05-19T13:09:16.992Z,5.20
2023-05-19T13:11:52.243Z,5.10
2023-05-19T13:14:24.045Z,5.17
2023-05-19T13:16:55.656Z,4.72
2023-05-19T13:19:27.766Z,5.55
2023-05-19T13:21:59.417Z,4.92
2023-05-19T13:24:30.866Z,5.60
2023-05-19T13:27:03.372Z,5.78
2023-05-19T13:29:34.906Z,5.08
2023-05-19T13:32:08.432Z,5.28
2023-05-19T13:34:40.579Z,4.97
2023-05-19T13:37:12.215Z,4.90
2023-05-19T13:39:43.955Z,5.33
2023-05-19T13:42:16.415Z,7.00
2023-05-19T13:44:48.265Z,5.05
2023-05-19T13:47:19.998Z,5.40
2023-05-19T13:49:52.161Z,7.65
2023-05-19T13:52:23.698Z,6.37
2023-05-19T13:54:56.565Z,5.08
2023-05-19T13:57:28.418Z,5.80
2023-05-19T14:00:03.750Z,4.90
2023-05-19T14:02:36.405Z,5.67
2023-05-19T14:05:09.478Z,5.28
2023-05-19T14:07:41.452Z,5.40
2023-05-19T14:10:13.467Z,4.97
2023-05-19T14:13:14.103Z,5.65
2023-05-19T14:15:18.808Z,6.12
2023-05-19T14:17:50.336Z,4.40
2023-05-19T14:20:21.873Z,4.28
2023-05-19T14:22:53.377Z,4.83
2023-05-19T14:25:24.813Z,4.75
2023-05-19T14:27:56.349Z,4.55
2023-05-19T14:30:27.892Z,4.78
2023-05-19T14:32:59.851Z,5.08
2023-05-19T14:35:31.394Z,4.95
2023-05-19T14:38:03.149Z,5.22
2023-05-19T14:40:35.353Z,4.78
2023-05-19T14:43:07.138Z,5.28
2023-05-19T14:45:41.398Z,5.83
2023-05-19T14:48:13.244Z,5.35
2023-05-19T14:50:44.766Z,5.03
2023-05-19T14:53:16.878Z,5.28
2023-05-19T14:55:50.781Z,5.12
2023-05-19T14:58:29.063Z,5.03
2023-05-19T15:00:55.632Z,6.10
2023-05-19T15:03:27.341Z,4.55
2023-05-19T15:05:59.007Z,4.83
2023-05-19T15:08:30.645Z,4.40
2023-05-19T15:11:02.293Z,5.20
2023-05-19T15:13:33.826Z,4.67
2023-05-19T15:18:41.975Z,5.20
2023-05-19T15:21:13.532Z,4.30
2023-05-19T15:23:45.002Z,4.40
2023-05-19T15:26:16.680Z,5.00
2023-05-19T15:28:48.148Z,4.72
2023-05-19T15:31:19.824Z,5.22
2023-05-19T15:33:51.394Z,4.67
2023-05-19T15:36:23.350Z,5.03
2023-05-19T15:38:59.942Z,4.95
2023-05-19T15:41:31.578Z,5.15
2023-05-19T15:44:03.707Z,5.12
2023-05-19T15:46:35.857Z,6.05
2023-05-19T15:49:07.613Z,4.83
2023-05-19T15:51:39.212Z,4.75
2023-05-19T15:54:10.819Z,4.70
2023-05-19T15:56:42.363Z,4.87
2023-05-19T15:59:13.890Z,5.53
2023-05-19T16:01:45.512Z,5.97
2023-05-19T16:04:17.891Z,5.47
2023-05-19T16:06:49.612Z,5.55
2023-05-19T16:09:21.090Z,5.50
2023-05-19T16:11:52.814Z,5.95
2023-05-19T16:14:24.449Z,5.08
2023-05-19T16:16:56.726Z,5.30
2023-05-19T16:19:28.397Z,5.03
2023-05-19T16:22:00.046Z,17.05
2023-05-19T16:24:31.523Z,5.87
2023-05-19T16:27:03.193Z,5.25
2023-05-19T16:29:34.831Z,5.50
2023-05-19T16:32:07.405Z,4.97
2023-05-19T16:34:40.063Z,4.62
2023-05-19T16:37:11.570Z,5.35
2023-05-19T16:39:43.788Z,6.28
2023-05-19T16:42:15.321Z,5.60
2023-05-19T16:44:47.032Z,6.10
2023-05-19T16:47:18.471Z,6.25
2023-05-19T16:49:49.983Z,6.33
2023-05-19T16:52:22.841Z,7.08
2023-05-19T16:54:54.365Z,6.53
2023-05-19T16:57:26.008Z,6.00
2023-05-19T16:59:59.091Z,6.00
2023-05-19T17:02:30.883Z,7.50
2023-05-19T17:05:02.591Z,9.90
2023-05-19T17:07:35.082Z,7.67
2023-05-19T17:10:07.843Z,6.62
2023-05-19T17:12:39.351Z,5.87
2023-05-19T17:15:11.930Z,5.55
2023-05-19T17:17:43.514Z,5.58
2023-05-19T17:20:16.458Z,6.45
2023-05-19T17:22:48.134Z,5.85
2023-05-19T17:25:19.765Z,7.72
2023-05-19T17:27:52.526Z,7.53
2023-05-19T17:30:26.156Z,6.03
2023-05-19T17:32:58.936Z,5.87
2023-05-19T17:35:30.612Z,4.92
2023-05-19T17:38:02.182Z,6.50
2023-05-19T17:40:34.195Z,6.92
2023-05-19T17:43:08.333Z,5.97
2023-05-19T17:45:39.898Z,6.70
2023-05-19T17:48:11.703Z,6.45
2023-05-19T17:50:43.768Z,6.85
2023-05-19T17:53:16.596Z,5.90
2023-05-19T17:55:51.767Z,5.97
2023-05-19T17:58:24.208Z,7.33
2023-05-19T18:01:00.467Z,7.92
2023-05-19T18:03:33.274Z,7.53
2023-05-19T18:06:07.749Z,6.15
2023-05-19T18:08:41.661Z,5.17
2023-05-19T18:11:15.550Z,5.90
2023-05-19T18:13:47.086Z,5.45
2023-05-19T18:16:18.648Z,10.40
2023-05-19T18:18:50.901Z,6.47
2023-05-19T18:21:24.305Z,7.92
2023-05-19T18:23:56.215Z,7.65
2023-05-19T18:26:27.852Z,6.97
2023-05-19T18:29:00.986Z,8.25
2023-05-19T18:31:32.643Z,7.37
2023-05-19T18:34:05.475Z,9.85
2023-05-19T18:36:37.592Z,7.50
2023-05-19T18:39:09.047Z,6.87
2023-05-19T18:41:42.734Z,7.40
2023-05-19T18:44:14.450Z,7.10
2023-05-19T18:46:46.655Z,8.68
2023-05-19T18:49:18.643Z,8.23
2023-05-19T18:51:50.117Z,7.45
2023-05-19T18:54:21.830Z,7.03
2023-05-19T18:56:53.283Z,8.40
2023-05-19T18:59:25.985Z,6.78
2023-05-19T19:01:57.460Z,7.95
2023-05-19T19:04:29.026Z,8.93
2023-05-19T19:07:01.224Z,9.30
2023-05-19T19:09:32.742Z,7.62
2023-05-19T19:12:04.231Z,7.30
2023-05-19T19:14:36.251Z,8.93
2023-05-19T19:17:10.098Z,8.00
2023-05-19T19:19:41.857Z,8.98
2023-05-19T19:22:13.727Z,7.80
2023-05-19T19:24:45.434Z,8.28
2023-05-19T19:27:17.649Z,8.10
2023-05-19T19:29:49.345Z,7.28
2023-05-19T19:32:21.294Z,8.40
2023-05-19T19:34:53.380Z,9.20
2023-05-19T19:37:24.831Z,9.90
2023-05-19T19:39:56.490Z,9.55
2023-05-19T19:42:28.261Z,8.78
2023-05-19T19:44:59.966Z,7.58
2023-05-19T19:47:32.546Z,8.13
2023-05-19T19:50:05.815Z,7.87
2023-05-19T19:52:37.452Z,7.75
2023-05-19T19:55:11.206Z,8.23
2023-05-19T19:57:44.294Z,8.55
2023-05-19T20:00:18.339Z,9.08
2023-05-19T20:03:03.610Z,8.65
2023-05-19T20:05:23.499Z,10.28
2023-05-19T20:07:57.018Z,9.13
2023-05-19T20:10:28.796Z,7.78
2023-05-19T20:13:00.306Z,8.53
2023-05-19T20:15:32.338Z,8.43
2023-05-19T20:18:04.750Z,9.50
2023-05-19T20:20:36.510Z,8.45
2023-05-19T20:23:08.268Z,9.20
2023-05-19T20:25:54.374Z,9.25
2023-05-19T20:28:31.865Z,10.15
2023-05-19T20:31:04.321Z,8.10
2023-05-19T20:33:35.926Z,9.50
2023-05-19T20:36:07.966Z,9.98
2023-05-19T20:38:39.422Z,8.50
2023-05-19T20:41:11.130Z,8.58
2023-05-19T20:43:43.031Z,9.65
2023-05-19T20:46:15.132Z,8.40
2023-05-19T20:48:46.815Z,8.68
2023-05-19T20:51:18.390Z,8.88
2023-05-19T20:53:50.450Z,8.05
2023-05-19T20:56:22.874Z,8.48
2023-05-19T20:58:54.510Z,8.60
2023-05-19T21:01:26.090Z,9.05
2023-05-19T21:03:57.663Z,9.43
2023-05-19T21:06:29.338Z,8.73
2023-05-19T21:09:03.484Z,8.58
2023-05-19T21:11:35.625Z,8.70
2023-05-19T21:14:09.375Z,9.35
2023-05-19T21:16:42.324Z,8.30
2023-05-19T21:19:14.017Z,10.58
2023-05-19T21:21:47.423Z,14.20
2023-05-19T21:24:19.028Z,8.80
2023-05-19T21:26:51.474Z,10.30
2023-05-19T21:29:23.186Z,8.10
2023-05-19T21:31:56.266Z,8.95
2023-05-19T21:34:28.490Z,9.80
2023-05-19T21:37:00.095Z,8.38
2023-05-19T21:39:31.659Z,10.00
2023-05-19T21:42:03.251Z,9.13
2023-05-19T21:44:34.937Z,8.63
2023-05-19T21:47:08.636Z,9.18
2023-05-19T21:49:40.638Z,7.53
2023-05-19T21:52:13.033Z,8.18
2023-05-19T21:54:44.845Z,8.43
2023-05-19T21:57:16.603Z,8.03
2023-05-19T21:59:50.222Z,8.28
2023-05-19T22:02:21.821Z,8.73
2023-05-19T22:04:53.579Z,9.10
2023-05-19T22:07:27.990Z,7.78
2023-05-19T22:10:01.504Z,9.45
2023-05-19T22:12:34.051Z,8.03
2023-05-19T22:15:07.103Z,8.13
2023-05-19T22:17:38.672Z,8.33
2023-05-19T22:20:12.642Z,9.15
2023-05-19T22:22:44.151Z,8.55
2023-05-19T22:25:15.834Z,9.70
2023-05-19T22:27:47.460Z,7.72
2023-05-19T22:30:19.082Z,9.70
2023-05-19T22:32:51.752Z,9.85
2023-05-19T22:35:24.829Z,9.58
2023-05-19T22:37:56.430Z,7.42
2023-05-19T22:40:30.028Z,9.28
2023-05-19T22:43:01.693Z,10.50
2023-05-19T22:45:35.423Z,9.88
2023-05-19T22:48:08.433Z,8.60
2023-05-19T22:50:40.151Z,9.25
2023-05-19T22:53:11.703Z,9.53
2023-05-19T22:55:43.448Z,9.80
2023-05-19T22:58:14.946Z,8.48
2023-05-19T23:00:46.484Z,9.68
2023-05-19T23:03:18.208Z,9.35
2023-05-19T23:05:50.691Z,9.45
2023-05-19T23:08:22.184Z,9.25
2023-05-19T23:10:53.799Z,7.45
2023-05-19T23:13:25.809Z,7.78
2023-05-19T23:15:57.330Z,8.28
2023-05-19T23:18:28.864Z,9.55
2023-05-19T23:21:00.565Z,8.60
2023-05-19T23:23:32.252Z,9.95
2023-05-19T23:26:03.773Z,8.75
2023-05-19T23:28:35.375Z,9.78
2023-05-19T23:31:07.158Z,9.18
2023-05-19T23:33:38.807Z,11.85
2023-05-19T23:36:12.586Z,9.98
2023-05-19T23:38:44.108Z,8.80
2023-05-19T23:41:15.556Z,8.85
2023-05-19T23:43:48.132Z,9.25
2023-05-19T23:46:19.637Z,9.53
2023-05-19T23:48:51.210Z,9.33
2023-05-19T23:51:22.657Z,8.83
2023-05-19T23:53:54.183Z,9.68
2023-05-19T23:56:25.706Z,9.88
2023-05-19T23:58:57.293Z,9.18
